createdAt,value
2023-05-07T00:01:42.010Z,68.40
2023-05-07T00:04:11.276Z,68.99
2023-05-07T00:06:39.033Z,68.86
2023-05-07T00:09:06.533Z,69.17
2023-05-07T00:11:35.053Z,69.64
2023-05-07T00:14:03.960Z,69.61
2023-05-07T00:16:31.624Z,69.99
2023-05-07T00:18:59.117Z,69.96
2023-05-07T00:21:28.048Z,70.48
2023-05-07T00:23:55.874Z,70.39
2023-05-07T00:26:25.811Z,70.32
2023-05-07T00:28:53.273Z,70.82
2023-05-07T00:31:20.801Z,70.81
2023-05-07T00:33:48.556Z,70.73
2023-05-07T00:36:16.023Z,71.10
2023-05-07T00:38:44.819Z,71.02
2023-05-07T00:41:12.314Z,71.25
2023-05-07T00:43:39.826Z,71.54
2023-05-07T00:46:07.431Z,71.47
2023-05-07T00:48:35.183Z,71.21
2023-05-07T00:51:02.740Z,71.18
2023-05-07T00:53:30.254Z,71.66
2023-05-07T00:55:59.241Z,71.32
2023-05-07T00:58:26.764Z,71.17
2023-05-07T01:00:54.255Z,71.45
2023-05-07T01:03:22.574Z,71.29
2023-05-07T01:05:51.259Z,71.95
2023-05-07T01:08:19.750Z,71.74
2023-05-07T01:10:47.581Z,71.59
2023-05-07T01:13:16.544Z,72.13
2023-05-07T01:15:44.723Z,71.31
2023-05-07T01:18:12.381Z,71.79
2023-05-07T01:20:40.069Z,71.59
2023-05-07T01:23:09.088Z,71.46
2023-05-07T01:25:36.664Z,71.79
2023-05-07T01:28:04.212Z,71.95
2023-05-07T01:30:31.785Z,71.69
2023-05-07T01:33:01.644Z,71.22
2023-05-07T01:35:31.483Z,71.67
2023-05-07T01:37:59.122Z,71.58
2023-05-07T01:40:27.995Z,71.92
2023-05-07T01:42:56.230Z,72.06
2023-05-07T01:45:23.795Z,71.89
2023-05-07T01:47:51.735Z,72.30
2023-05-07T01:50:20.669Z,71.93
2023-05-07T01:52:49.181Z,71.92
2023-05-07T01:55:16.614Z,72.47
2023-05-07T01:57:45.461Z,72.13
2023-05-07T02:00:13.943Z,72.38
2023-05-07T02:02:41.666Z,72.10
2023-05-07T02:05:10.069Z,72.78
2023-05-07T02:07:37.533Z,72.56
2023-05-07T02:10:06.036Z,72.92
2023-05-07T02:12:33.589Z,72.29
2023-05-07T02:15:03.536Z,72.74
2023-05-07T02:17:34.205Z,73.07
2023-05-07T02:20:01.759Z,72.80
2023-05-07T02:22:29.237Z,72.73
2023-05-07T02:24:56.662Z,73.21
2023-05-07T02:27:24.126Z,73.16
2023-05-07T02:29:51.576Z,73.01
2023-05-07T02:32:20.736Z,72.99
2023-05-07T02:34:48.192Z,73.10
2023-05-07T02:37:15.633Z,72.91
2023-05-07T02:39:43.083Z,73.03
2023-05-07T02:42:10.537Z,73.29
2023-05-07T02:44:38.023Z,73.47
2023-05-07T02:47:05.919Z,73.91
2023-05-07T02:49:34.904Z,73.68
2023-05-07T02:52:02.455Z,73.27
2023-05-07T02:54:29.920Z,73.73
2023-05-07T02:56:57.361Z,73.57
2023-05-07T02:59:26.146Z,73.55
2023-05-07T03:01:53.618Z,73.75
2023-05-07T03:04:21.337Z,73.36
2023-05-07T03:06:50.242Z,73.43
2023-05-07T03:09:17.726Z,73.97
2023-05-07T03:11:45.428Z,73.86
2023-05-07T03:14:12.870Z,74.02
2023-05-07T03:16:41.145Z,74.03
2023-05-07T03:19:08.687Z,74.68
2023-05-07T03:21:36.227Z,74.61
2023-05-07T03:24:05.536Z,73.95
2023-05-07T03:26:32.995Z,74.18
2023-05-07T03:29:00.439Z,74.58
2023-05-07T03:31:27.929Z,74.83
2023-05-07T03:33:57.058Z,74.71
2023-05-07T03:36:25.062Z,74.65
2023-05-07T03:38:52.554Z,74.28
2023-05-07T03:41:21.647Z,74.85
2023-05-07T03:43:49.111Z,74.98
2023-05-07T03:46:16.697Z,74.88
2023-05-07T03:48:44.176Z,74.99
2023-05-07T03:51:11.624Z,74.75
2023-05-07T03:53:39.114Z,75.18
2023-05-07T03:56:06.825Z,74.56
2023-05-07T03:58:35.831Z,74.70
2023-05-07T04:01:03.690Z,75.13
2023-05-07T04:03:31.409Z,75.21
2023-05-07T04:05:58.971Z,75.22
2023-05-07T04:08:26.705Z,75.44
2023-05-07T04:10:57.018Z,75.89
2023-05-07T04:13:24.736Z,75.80
2023-05-07T04:15:53.836Z,75.64
2023-05-07T04:18:22.204Z,75.00
2023-05-07T04:20:50.218Z,75.19
2023-05-07T04:23:17.973Z,75.35
2023-05-07T04:25:46.092Z,75.15
2023-05-07T04:28:13.747Z,74.70
2023-05-07T04:30:42.185Z,74.90
2023-05-07T04:33:11.494Z,75.65
2023-05-07T04:35:39.152Z,75.38
2023-05-07T04:38:06.625Z,74.91
2023-05-07T04:40:34.085Z,75.31
2023-05-07T04:43:02.168Z,75.45
2023-05-07T04:45:29.634Z,74.96
2023-05-07T04:47:57.146Z,75.23
2023-05-07T04:50:26.839Z,75.37
2023-05-07T04:52:54.478Z,75.78
2023-05-07T04:55:21.969Z,75.46
2023-05-07T04:57:49.430Z,75.96
2023-05-07T05:00:17.555Z,76.21
2023-05-07T05:02:45.084Z,76.39
2023-05-07T05:05:12.685Z,75.72
2023-05-07T05:07:41.470Z,75.85
2023-05-07T05:10:09.445Z,75.67
2023-05-07T05:12:37.129Z,76.00
2023-05-07T05:15:05.376Z,75.56
2023-05-07T05:17:32.874Z,75.34
2023-05-07T05:20:00.468Z,75.36
2023-05-07T05:22:30.695Z,75.20
2023-05-07T05:24:59.508Z,74.98
2023-05-07T05:27:27.027Z,75.64
2023-05-07T05:29:54.481Z,75.11
2023-05-07T05:32:22.087Z,75.03
2023-05-07T05:34:49.990Z,75.02
2023-05-07T05:37:17.583Z,74.83
2023-05-07T05:39:45.129Z,75.09
2023-05-07T05:42:13.918Z,74.54
2023-05-07T05:44:41.389Z,74.65
2023-05-07T05:47:08.947Z,75.02
2023-05-07T05:49:36.448Z,74.45
2023-05-07T05:52:04.105Z,74.17
2023-05-07T05:54:32.986Z,73.97
2023-05-07T05:57:00.462Z,74.21
2023-05-07T05:59:29.316Z,73.81
2023-05-07T06:01:56.889Z,73.96
2023-05-07T06:04:24.355Z,73.48
2023-05-07T06:06:51.864Z,73.76
2023-05-07T06:09:19.301Z,73.44
2023-05-07T06:11:46.810Z,72.58
2023-05-07T06:14:14.290Z,72.46
2023-05-07T06:16:43.176Z,73.09
2023-05-07T06:19:10.651Z,72.83
2023-05-07T06:21:38.126Z,72.52
2023-05-07T06:24:05.988Z,72.11
2023-05-07T06:26:33.450Z,72.24
2023-05-07T06:29:00.899Z,71.34
2023-05-07T06:31:31.774Z,71.56
2023-05-07T06:34:03.405Z,71.09
2023-05-07T06:36:31.139Z,70.73
2023-05-07T06:38:58.648Z,70.84
2023-05-07T06:41:26.814Z,70.53
2023-05-07T06:43:54.334Z,69.95
2023-05-07T06:46:22.270Z,70.07
2023-05-07T06:48:49.919Z,69.35
2023-05-07T06:51:18.699Z,69.62
2023-05-07T06:53:46.173Z,69.51
2023-05-07T06:56:13.675Z,69.61
2023-05-07T06:58:41.181Z,69.56
2023-05-07T07:01:08.727Z,68.81
2023-05-07T07:03:36.221Z,68.73
2023-05-07T07:06:04.197Z,68.36
2023-05-07T07:08:33.057Z,68.60
2023-05-07T07:11:00.517Z,67.12
2023-05-07T07:13:28.063Z,67.26
2023-05-07T07:15:55.724Z,67.52
2023-05-07T07:18:23.239Z,67.62
2023-05-07T07:20:50.936Z,67.15
2023-05-07T07:23:18.382Z,66.78
2023-05-07T07:25:47.413Z,66.56
2023-05-07T07:28:14.897Z,66.28
2023-05-07T07:30:42.369Z,66.10
2023-05-07T07:33:09.879Z,65.19
2023-05-07T07:35:37.467Z,64.80
2023-05-07T07:38:04.925Z,64.92
2023-05-07T07:40:32.402Z,64.55
2023-05-07T07:43:02.216Z,64.00
2023-05-07T07:45:29.983Z,63.47
2023-05-07T07:47:57.473Z,63.44
2023-05-07T07:50:36.050Z,63.34
2023-05-07T07:53:10.874Z,62.25
2023-05-07T07:55:40.497Z,62.61
2023-05-07T07:58:09.438Z,62.12
2023-05-07T08:00:37.008Z,62.22
2023-05-07T08:03:06.168Z,61.96
2023-05-07T08:05:33.853Z,61.54
2023-05-07T08:08:01.332Z,60.91
2023-05-07T08:10:29.044Z,60.23
2023-05-07T08:12:56.578Z,59.67
2023-05-07T08:15:25.404Z,60.03
2023-05-07T08:17:52.897Z,58.97
2023-05-07T08:20:20.758Z,59.05
2023-05-07T08:22:48.241Z,59.39
2023-05-07T08:25:15.757Z,58.58
2023-05-07T08:27:43.247Z,59.12
2023-05-07T08:30:11.994Z,58.96
2023-05-07T08:32:41.096Z,58.76
2023-05-07T08:35:09.507Z,59.89
2023-05-07T08:37:36.979Z,58.50
2023-05-07T08:40:06.598Z,58.77
2023-05-07T08:42:37.879Z,58.73
2023-05-07T08:45:07.618Z,58.54
2023-05-07T08:47:39.506Z,58.97
2023-05-07T08:50:09.523Z,57.75
2023-05-07T08:52:37.405Z,56.96
2023-05-07T08:55:05.984Z,57.17
2023-05-07T08:57:33.499Z,56.47
2023-05-07T09:00:01.048Z,56.52
2023-05-07T09:02:28.586Z,56.34
2023-05-07T09:04:56.285Z,55.73
2023-05-07T09:07:25.630Z,54.59
2023-05-07T09:09:53.133Z,55.67
2023-05-07T09:12:20.697Z,55.29
2023-05-07T09:14:48.178Z,55.45
2023-05-07T09:17:15.664Z,54.31
2023-05-07T09:19:43.118Z,55.54
2023-05-07T09:22:10.593Z,54.53
2023-05-07T09:24:39.584Z,54.56
2023-05-07T09:27:07.863Z,53.82
2023-05-07T09:29:36.390Z,53.97
2023-05-07T09:32:04.547Z,52.45
2023-05-07T09:34:32.208Z,52.42
2023-05-07T09:37:00.709Z,53.11
2023-05-07T09:39:28.217Z,54.04
2023-05-07T09:41:59.401Z,52.54
2023-05-07T09:44:27.716Z,54.43
2023-05-07T09:46:56.583Z,54.13
2023-05-07T09:49:25.835Z,53.07
2023-05-07T09:51:54.672Z,53.96
2023-05-07T09:54:22.135Z,52.76
2023-05-07T09:56:50.279Z,51.99
2023-05-07T09:59:19.077Z,53.25
2023-05-07T10:01:47.054Z,53.05
2023-05-07T10:04:14.791Z,53.68
2023-05-07T10:06:42.831Z,52.51
2023-05-07T10:09:10.703Z,52.80
2023-05-07T10:11:38.871Z,52.14
2023-05-07T10:14:07.304Z,52.24
2023-05-07T10:16:38.067Z,51.71
2023-05-07T10:19:05.826Z,52.57
2023-05-07T10:21:36.062Z,52.06
2023-05-07T10:24:09.397Z,52.04
2023-05-07T10:26:37.254Z,51.80
2023-05-07T10:29:09.377Z,51.97
2023-05-07T10:31:51.337Z,52.01
2023-05-07T10:34:24.367Z,51.52
2023-05-07T10:36:52.802Z,51.70
2023-05-07T10:39:21.670Z,51.29
2023-05-07T10:41:49.278Z,50.06
2023-05-07T10:44:27.930Z,50.13
2023-05-07T10:47:09.889Z,50.01
2023-05-07T10:49:38.332Z,49.94
2023-05-07T10:52:16.876Z,50.72
2023-05-07T10:54:45.397Z,49.63
2023-05-07T10:57:35.085Z,49.89
2023-05-07T11:00:02.647Z,50.15
2023-05-07T11:03:08.024Z,50.23
2023-05-07T11:05:38.252Z,50.05
2023-05-07T11:08:06.958Z,49.77
2023-05-07T11:10:50.164Z,49.46
2023-05-07T11:13:17.889Z,48.74
2023-05-07T11:15:46.892Z,48.30
2023-05-07T11:18:17.050Z,47.96
2023-05-07T11:20:49.860Z,47.71
2023-05-07T11:24:09.743Z,47.31
2023-05-07T11:26:45.902Z,47.48
2023-05-07T11:29:14.897Z,47.82
2023-05-07T11:31:42.608Z,44.52
2023-05-07T11:34:11.592Z,45.94
2023-05-07T11:36:44.698Z,45.10
2023-05-07T11:39:28.839Z,45.62
2023-05-07T11:41:56.673Z,44.78
2023-05-07T11:44:24.291Z,44.46
2023-05-07T11:46:51.985Z,44.57
2023-05-07T11:49:21.025Z,44.06
2023-05-07T11:51:48.572Z,43.61
2023-05-07T11:54:18.076Z,44.07
2023-05-07T11:56:46.056Z,43.58
2023-05-07T11:59:13.559Z,43.88
2023-05-07T12:01:41.060Z,43.21
2023-05-07T12:04:08.769Z,43.28
2023-05-07T12:06:40.018Z,42.71
2023-05-07T12:09:12.393Z,42.35
2023-05-07T12:11:41.576Z,42.06
2023-05-07T12:14:11.550Z,41.36
2023-05-07T12:16:40.907Z,41.37
2023-05-07T12:19:09.840Z,40.71
2023-05-07T12:21:38.702Z,40.56
2023-05-07T12:24:06.931Z,42.06
2023-05-07T12:26:34.419Z,41.33
2023-05-07T12:29:01.943Z,40.61
2023-05-07T12:31:29.480Z,40.38
2023-05-07T12:33:56.965Z,40.55
2023-05-07T12:36:24.412Z,40.99
2023-05-07T12:38:53.378Z,40.57
2023-05-07T12:41:26.581Z,41.09
2023-05-07T12:43:58.326Z,41.20
2023-05-07T12:46:25.872Z,39.27
2023-05-07T12:48:54.421Z,39.26
2023-05-07T12:51:21.949Z,39.61
2023-05-07T12:53:49.429Z,39.65
2023-05-07T12:56:18.705Z,40.43
2023-05-07T12:58:46.164Z,40.36
2023-05-07T13:01:16.451Z,40.27
2023-05-07T13:03:51.235Z,39.84
2023-05-07T13:06:18.843Z,39.82
2023-05-07T13:08:46.415Z,40.08
2023-05-07T13:11:14.519Z,39.22
2023-05-07T13:13:43.560Z,39.08
2023-05-07T13:16:12.612Z,41.07
2023-05-07T13:18:41.403Z,40.26
2023-05-07T13:21:09.233Z,39.12
2023-05-07T13:23:36.680Z,39.07
2023-05-07T13:26:11.492Z,38.91
2023-05-07T13:28:44.326Z,39.93
2023-05-07T13:31:13.487Z,40.67
2023-05-07T13:33:40.969Z,39.57
2023-05-07T13:36:08.810Z,38.20
2023-05-07T13:38:36.347Z,38.13
2023-05-07T13:41:03.817Z,38.07
2023-05-07T13:43:32.768Z,38.37
2023-05-07T13:46:01.914Z,37.69
2023-05-07T13:48:29.635Z,37.95
2023-05-07T13:50:57.058Z,40.23
2023-05-07T13:53:24.581Z,38.17
2023-05-07T13:55:52.060Z,38.36
2023-05-07T13:58:19.532Z,37.50
2023-05-07T14:00:47.051Z,38.37
2023-05-07T14:03:15.998Z,40.50
2023-05-07T14:05:43.675Z,42.21
2023-05-07T14:08:11.859Z,42.17
2023-05-07T14:10:39.319Z,41.53
2023-05-07T14:13:07.341Z,41.87
2023-05-07T14:15:34.980Z,42.37
2023-05-07T14:18:02.693Z,43.21
2023-05-07T14:20:32.037Z,42.77
2023-05-07T14:22:59.498Z,43.12
2023-05-07T14:25:26.966Z,42.71
2023-05-07T14:27:54.502Z,42.02
2023-05-07T14:30:23.261Z,41.45
2023-05-07T14:32:50.933Z,42.40
2023-05-07T14:35:18.656Z,42.88
2023-05-07T14:37:47.438Z,43.21
2023-05-07T14:40:15.615Z,42.81
2023-05-07T14:42:43.084Z,42.30
2023-05-07T14:45:13.925Z,42.70
2023-05-07T14:47:41.680Z,41.97
2023-05-07T14:50:09.598Z,41.57
2023-05-07T14:52:37.080Z,42.19
2023-05-07T14:55:06.870Z,41.71
2023-05-07T14:57:36.700Z,41.87
2023-05-07T15:00:05.886Z,41.45
2023-05-07T15:02:33.405Z,42.45
2023-05-07T15:05:00.986Z,42.07
2023-05-07T15:07:28.442Z,41.80
2023-05-07T15:09:56.220Z,42.17
2023-05-07T15:12:25.020Z,41.92
2023-05-07T15:14:52.467Z,41.45
2023-05-07T15:17:19.944Z,41.53
2023-05-07T15:19:47.393Z,41.30
2023-05-07T15:22:14.869Z,41.48
2023-05-07T15:24:42.863Z,41.50
2023-05-07T15:27:10.374Z,41.81
2023-05-07T15:29:39.156Z,41.86
2023-05-07T15:32:06.964Z,42.06
2023-05-07T15:34:34.541Z,42.31
2023-05-07T15:39:29.782Z,42.31
2023-05-07T15:41:57.251Z,41.53
2023-05-07T15:44:28.284Z,41.76
2023-05-07T15:46:57.165Z,42.43
2023-05-07T15:49:24.644Z,42.79
2023-05-07T15:51:52.979Z,42.55
2023-05-07T15:54:21.138Z,43.00
2023-05-07T15:56:48.865Z,43.18
2023-05-07T15:59:18.169Z,43.53
2023-05-07T16:01:46.155Z,43.22
2023-05-07T16:04:15.119Z,43.61
2023-05-07T16:06:44.759Z,43.26
2023-05-07T16:09:12.320Z,43.40
2023-05-07T16:11:39.907Z,43.11
2023-05-07T16:14:07.542Z,42.99
2023-05-07T16:16:35.485Z,42.90
2023-05-07T16:19:02.983Z,43.63
2023-05-07T16:21:32.821Z,43.05
2023-05-07T16:24:00.662Z,43.49
2023-05-07T16:26:28.229Z,43.23
2023-05-07T16:28:55.822Z,43.60
2023-05-07T16:31:23.603Z,43.76
2023-05-07T16:33:51.284Z,43.60
2023-05-07T16:36:19.092Z,43.68
2023-05-07T16:38:47.941Z,43.28
2023-05-07T16:41:15.404Z,43.53
2023-05-07T16:43:43.013Z,45.17
2023-05-07T16:46:10.581Z,47.70
2023-05-07T16:48:38.159Z,53.30
2023-05-07T16:51:07.182Z,59.08
2023-05-07T16:53:35.810Z,60.73
2023-05-07T16:56:06.813Z,62.92
2023-05-07T16:58:34.479Z,64.61
2023-05-07T17:01:02.388Z,67.26
2023-05-07T17:03:31.991Z,67.55
2023-05-07T17:05:59.681Z,69.06
2023-05-07T17:08:27.161Z,68.71
2023-05-07T17:10:54.763Z,70.95
2023-05-07T17:13:23.633Z,71.68
2023-05-07T17:15:51.215Z,72.37
2023-05-07T17:18:18.839Z,73.29
2023-05-07T17:20:46.264Z,74.02
2023-05-07T17:23:15.289Z,73.45
2023-05-07T17:25:45.377Z,77.51
2023-05-07T17:28:12.883Z,78.29
2023-05-07T17:30:41.750Z,79.49
2023-05-07T17:33:20.099Z,79.63
2023-05-07T17:35:48.797Z,80.64
2023-05-07T17:38:16.275Z,79.55
2023-05-07T17:40:43.732Z,81.28
2023-05-07T17:43:11.228Z,80.77
2023-05-07T17:45:38.842Z,78.79
2023-05-07T17:48:08.115Z,80.02
2023-05-07T17:50:35.588Z,82.50
2023-05-07T17:53:03.134Z,80.60
2023-05-07T17:55:33.493Z,82.56
2023-05-07T17:58:03.218Z,82.20
2023-05-07T18:00:30.793Z,82.44
2023-05-07T18:02:59.918Z,82.10
2023-05-07T18:05:29.392Z,82.97
2023-05-07T18:07:56.974Z,85.02
2023-05-07T18:10:24.439Z,83.90
2023-05-07T18:12:52.010Z,84.55
2023-05-07T18:15:19.578Z,86.90
2023-05-07T18:17:47.095Z,86.88
2023-05-07T18:20:14.706Z,87.90
2023-05-07T18:22:43.500Z,89.46
2023-05-07T18:25:11.338Z,92.12
2023-05-07T18:27:38.806Z,90.65
2023-05-07T18:30:07.550Z,90.10
2023-05-07T18:32:35.103Z,89.57
2023-05-07T18:35:02.557Z,89.39
2023-05-07T18:37:30.913Z,90.71
2023-05-07T18:40:02.761Z,90.36
2023-05-07T18:42:30.697Z,90.48
2023-05-07T18:44:58.645Z,90.31
2023-05-07T18:47:26.126Z,89.74
2023-05-07T18:49:53.553Z,90.51
2023-05-07T18:52:22.120Z,90.18
2023-05-07T18:54:49.576Z,91.09
2023-05-07T18:57:18.416Z,90.05
2023-05-07T18:59:45.970Z,90.29
2023-05-07T19:02:14.310Z,89.52
2023-05-07T19:04:41.826Z,89.46
2023-05-07T19:07:21.414Z,89.21
2023-05-07T19:10:03.713Z,90.79
2023-05-07T19:12:33.546Z,89.09
2023-05-07T19:15:01.052Z,89.24
2023-05-07T19:17:28.687Z,89.99
2023-05-07T19:19:56.244Z,90.00
2023-05-07T19:22:24.880Z,90.94
2023-05-07T19:24:52.414Z,91.65
2023-05-07T19:27:19.956Z,92.09
2023-05-07T19:29:48.730Z,91.96
2023-05-07T19:32:16.179Z,91.58
2023-05-07T19:34:43.908Z,91.63
2023-05-07T19:37:11.340Z,91.96
2023-05-07T19:39:38.800Z,91.27
2023-05-07T19:42:06.776Z,90.58
2023-05-07T19:44:34.247Z,89.78
2023-05-07T19:47:03.649Z,90.79
2023-05-07T19:49:31.150Z,90.50
2023-05-07T19:51:58.629Z,91.55
2023-05-07T19:54:26.227Z,92.31
2023-05-07T19:56:53.713Z,91.89
2023-05-07T19:59:21.397Z,91.03
2023-05-07T20:01:48.874Z,92.25
2023-05-07T20:04:17.672Z,91.36
2023-05-07T20:06:45.147Z,90.27
2023-05-07T20:09:13.557Z,92.28
2023-05-07T20:11:41.232Z,92.37
2023-05-07T20:14:09.996Z,90.67
2023-05-07T20:16:37.581Z,88.89
2023-05-07T20:19:05.039Z,87.98
2023-05-07T20:21:33.861Z,87.50
2023-05-07T20:26:43.063Z,90.36
2023-05-07T20:29:10.553Z,90.18
2023-05-07T20:31:38.128Z,91.30
2023-05-07T20:34:05.600Z,89.83
2023-05-07T20:36:35.865Z,88.01
2023-05-07T20:39:04.127Z,87.39
2023-05-07T20:41:31.579Z,87.60
2023-05-07T20:44:00.333Z,86.83
2023-05-07T20:46:27.961Z,89.24
2023-05-07T20:48:56.537Z,88.42
2023-05-07T20:51:24.066Z,89.54
2023-05-07T20:53:52.838Z,89.91
2023-05-07T20:56:21.320Z,90.54
2023-05-07T20:58:48.833Z,92.46
2023-05-07T21:01:16.327Z,94.66
2023-05-07T21:03:43.889Z,95.10
2023-05-07T21:06:11.436Z,95.35
2023-05-07T21:08:39.019Z,95.72
2023-05-07T21:11:09.807Z,94.98
2023-05-07T21:13:37.289Z,94.73
2023-05-07T21:16:05.391Z,94.60
2023-05-07T21:18:33.542Z,94.40
2023-05-07T21:21:01.041Z,94.75
2023-05-07T21:23:28.551Z,95.03
2023-05-07T21:25:56.019Z,95.99
2023-05-07T21:28:24.816Z,96.19
2023-05-07T21:30:53.170Z,96.59
2023-05-07T21:33:20.829Z,96.81
2023-05-07T21:35:48.287Z,97.40
2023-05-07T21:38:15.820Z,97.83
2023-05-07T21:40:43.277Z,97.75
2023-05-07T21:43:10.720Z,96.84
2023-05-07T21:45:39.905Z,94.99
2023-05-07T21:48:07.970Z,95.18
2023-05-07T21:50:35.782Z,95.03
2023-05-07T21:53:03.240Z,96.01
2023-05-07T21:55:30.701Z,97.14
2023-05-07T21:58:05.566Z,96.94
2023-05-07T22:00:33.998Z,97.21
2023-05-07T22:03:02.882Z,95.94
2023-05-07T22:05:30.521Z,95.17
2023-05-07T22:07:57.991Z,95.51
2023-05-07T22:10:25.640Z,95.06
2023-05-07T22:12:53.177Z,94.21
2023-05-07T22:15:20.809Z,94.29
2023-05-07T22:17:48.273Z,95.39
2023-05-07T22:20:17.409Z,96.90
2023-05-07T22:22:50.337Z,97.48
2023-05-07T22:25:20.018Z,96.16
2023-05-07T22:27:47.520Z,92.83
2023-05-07T22:30:15.291Z,91.03
2023-05-07T22:32:43.423Z,88.81
2023-05-07T22:35:11.414Z,86.64
2023-05-07T22:37:40.247Z,86.05
2023-05-07T22:40:08.901Z,85.44
2023-05-07T22:42:36.497Z,84.97
2023-05-07T22:45:04.130Z,85.08
2023-05-07T22:47:31.737Z,83.84
2023-05-07T22:49:59.263Z,83.18
2023-05-07T22:52:26.752Z,83.11
2023-05-07T22:54:55.562Z,81.44
2023-05-07T22:57:23.033Z,81.84
2023-05-07T22:59:54.587Z,81.50
2023-05-07T23:02:22.306Z,81.05
2023-05-07T23:04:49.949Z,81.38
2023-05-07T23:07:17.412Z,82.06
2023-05-07T23:09:45.074Z,82.20
2023-05-07T23:12:13.920Z,82.47
2023-05-07T23:14:41.421Z,81.69
2023-05-07T23:17:09.125Z,80.80
2023-05-07T23:19:36.987Z,81.94
2023-05-07T23:22:04.536Z,82.26
2023-05-07T23:24:32.026Z,82.66
2023-05-07T23:29:28.339Z,81.52
2023-05-07T23:31:55.793Z,81.73
2023-05-07T23:34:24.252Z,81.76
2023-05-07T23:36:52.010Z,82.11
2023-05-07T23:39:19.625Z,81.19
2023-05-07T23:41:47.502Z,81.75
2023-05-07T23:44:16.344Z,81.26
2023-05-07T23:46:45.452Z,80.76
2023-05-07T23:49:13.016Z,80.99
2023-05-07T23:51:40.454Z,81.20
2023-05-07T23:54:07.968Z,81.04
2023-05-07T23:56:35.518Z,81.56
2023-05-07T23:59:03.236Z,82.41
